KDSV/DSV METAR and TAF weather

Enter ICAO airport designator
Station Type Date Time Source
KDSV METAR 2018/10/21 03:13 UTC NOAA

KDSV 210313Z AUTO 31017G23KT 4SM RA BR SCT008 BKN017 OVC024 06/04 A2975 RMK AO2 P0003 T00560039


Station Type Date Time Source
KDSV Decoded METAR 2018/10/21 03:13 UTC NOAA

DANSVILLE MUNICIPAL AIRPORT, NY, United States (KDSV) 42-34N 077-43W 198M
Oct 20, 2018 - 11:13 PM EDT / 2018.10.21 0313 UTC
Wind: from the NW (310 degrees) at 20 MPH (17 KT) gusting to 26 MPH (23 KT):0
Visibility: 4 mile(s):0
Sky conditions: overcast
Weather: rain; mist
Precipitation last hour: 0.03 inches
Temperature: 42.1 F (5.6 C)
Dew Point: 39.0 F (3.9 C)
Relative Humidity: 88%
Pressure (altimeter): 29.75 in. Hg (1007 hPa)
ob: KDSV 210313Z AUTO 31017G23KT 4SM RA BR SCT008 BKN017 OVC024 06/04 A2975 RMK AO2 P0003 T00560039
cycle: 3

Station Type Date Time Source
KDSV TAF UTC NOAA

Error!


Example: see airport list